Laughlin, NV

12:29 AM PDT on August 29, 2014 (GMT -0700)
Mirage Estates | Change Station
CLOSE
Current Station
Personal Weather Station
Location: Laughlin, NV
Elevation: 807 ft
Nearby Weather Stations

Elev 807 ft 35.14 °N, 114.63 °W | Updated 6 seconds ago

Clear
Clear
89.5 °F
Feels Like 86 °F
N
0.4
Wind Variable Wind from West
Gusts 1.1 mph

Today
High -- | Low -- °F
--% Chance of Precip.
Yesterday
High -- | Low -- °F
Precip. -- in
6:08 AM 7:09 PM
Waxing Crescent, 12% visible
Pressure 29.80 in
Visibility 10.0 miles
Clouds Clear
Heat Index 86 °F
Dew Point 38 °F
Humidity 17%
Rainfall 0.00 in
Snow Depth Not available.
UV 0 out of 12
Pollen 7.00 out of 12
Ozone Good
PM2.5 Moderate
Flu Activity Not available.
METAR KIFP 290715Z AUTO 09003KT 10SM CLR 32/01 A2980 RMK AO2 PWINO

More Conditions Fewer Conditions

Pressure 29.80 in
Visibility 10.0 miles
Clouds Clear
Heat Index 86 °F
Dew Point 38 °F
Humidity 17%
Rainfall 0.00 in
Snow Depth Not available.
UV 0 out of 12
Pollen 7.00 out of 12
Ozone Good
PM2.5 Moderate
Flu Activity Not available.
METAR KIFP 290715Z AUTO 09003KT 10SM CLR 32/01 A2980 RMK AO2 PWINO

More Conditions Fewer Conditions

10-Day Weather Forecast

Almanac

Astronomy

Aug. 29, 2014 Rise Set
Actual Time 6:08 AM PDT 7:09 PM PDT
Civil Twilight 5:42 AM PDT 7:35 PM PDT
Nautical Twilight 5:11 AM PDT 8:06 PM PDT
Astronomical Twilight 4:39 AM PDT 8:37 PM PDT
Moon 9:52 AM PDT 9:20 PM PDT
Length of Visible Light 13h 52m
Length of Day
13h 00m
Tomorrow will be 2m 6s shorter.
Waxing Crescent, 12% of the Moon is Illuminated
Today
Waxing Crescent
Sep 2
First Quarter
Sep 8
Full
Sep 15
Last Quarter
Sep 24
New

Community

WunderPhotos

Upload Photos

1,748,197 photos uploaded!

Nearby

Air Quality

  Air Quality AQ Index Pollutant
Yesterday Moderate
OZONE
Yesterday Good
PM10
Current Moderate
PM2.5
Current Good
OZONE
Thursday Moderate
OZONE
Thursday Good
PM10
Friday Moderate
OZONE
Friday Good
PM10
Saturday Moderate
OZONE
Saturday Good
PM10
Sunday Moderate
OZONE
Sunday Good
PM10
Monday Moderate
OZONE
Monday Good
PM10
Tuesday Moderate
OZONE
Tuesday Good
PM10

Snow Depth

Station Depth Elevation
Ward Mountain 0 in 9200 ft
Diamond Peak 1 in 8000 ft
Big Creek Summit 1 in 8700 ft
Corral Canyon 0 in 8500 ft
Green Mountain 0 in 8000 ft

Earthquake Activity

City Distance Mag. Time & Date
No recent earthquake activity has been reported nearby.
Minimum magnitude displayed is 2.5.

Coastal Water Temperatures

Place Temperature
No Stations Reporting

Nearby Weather Stations